createdAt,value
2022-10-14T00:02:31.143Z,22.50
2022-10-14T00:07:33.044Z,22.88
2022-10-14T00:12:34.597Z,22.80
2022-10-14T00:17:36.433Z,23.13
2022-10-14T00:22:37.828Z,22.05
2022-10-14T00:27:39.269Z,23.52
2022-10-14T00:32:40.635Z,23.38
2022-10-14T00:37:42.037Z,23.02
2022-10-14T00:42:43.420Z,24.92
2022-10-14T00:47:45.112Z,23.63
2022-10-14T00:52:46.960Z,21.33
2022-10-14T00:57:48.352Z,21.17
2022-10-14T01:02:49.719Z,20.05
2022-10-14T01:07:53.823Z,18.42
2022-10-14T01:13:08.065Z,16.98
2022-10-14T01:18:15.536Z,16.90
2022-10-14T01:23:38.676Z,16.60
2022-10-14T01:28:51.985Z,14.88
2022-10-14T01:33:58.380Z,15.63
2022-10-14T01:39:05.518Z,16.13
2022-10-14T01:44:12.004Z,15.80
2022-10-14T01:49:23.129Z,13.40
2022-10-14T01:54:31.167Z,13.95
2022-10-14T01:59:35.190Z,14.40
2022-10-14T02:04:36.554Z,13.43
2022-10-14T02:10:02.909Z,14.65
2022-10-14T02:15:15.090Z,15.18
2022-10-14T02:20:26.397Z,14.73
2022-10-14T02:25:32.644Z,15.00
2022-10-14T02:30:39.650Z,16.95
2022-10-14T02:35:42.992Z,16.45
2022-10-14T02:40:47.040Z,16.63
2022-10-14T02:45:48.400Z,16.08
2022-10-14T02:50:49.788Z,16.55
2022-10-14T02:55:51.168Z,16.33
2022-10-14T03:00:53.010Z,16.40
2022-10-14T03:05:55.467Z,16.33
2022-10-14T03:10:57.010Z,18.55
2022-10-14T03:15:59.074Z,16.88
2022-10-14T03:21:00.499Z,18.00
2022-10-14T03:26:01.875Z,18.00
2022-10-14T03:31:03.234Z,18.17
2022-10-14T03:36:04.739Z,18.33
2022-10-14T03:41:06.199Z,18.75
2022-10-14T03:46:07.548Z,18.48
2022-10-14T03:51:09.363Z,18.48
2022-10-14T03:56:10.873Z,19.17
2022-10-14T04:01:12.287Z,19.33
2022-10-14T04:06:14.520Z,20.95
2022-10-14T04:11:17.154Z,18.77
2022-10-14T04:16:18.550Z,19.40
2022-10-14T04:21:20.235Z,20.23
2022-10-14T04:26:21.582Z,19.77
2022-10-14T04:31:22.957Z,20.00
2022-10-14T04:36:24.318Z,21.45
2022-10-14T04:41:25.657Z,20.85
2022-10-14T04:46:27.063Z,19.88
2022-10-14T04:51:28.443Z,20.00
2022-10-14T04:56:29.855Z,18.88
2022-10-14T05:01:33.927Z,17.95
2022-10-14T05:06:37.304Z,18.67
2022-10-14T05:11:38.675Z,17.65
2022-10-14T05:16:40.074Z,17.75
2022-10-14T05:21:41.832Z,18.90
2022-10-14T05:26:43.233Z,20.52
2022-10-14T05:31:44.625Z,17.02
2022-10-14T05:36:46.054Z,18.85
2022-10-14T05:41:47.420Z,17.70
2022-10-14T05:46:48.791Z,17.33
2022-10-14T05:51:50.159Z,18.05
2022-10-14T05:56:51.690Z,16.55
2022-10-14T06:01:53.068Z,17.52
2022-10-14T06:06:54.577Z,17.60
2022-10-14T06:11:55.958Z,18.27
2022-10-14T06:16:57.328Z,17.33
2022-10-14T06:21:58.874Z,18.02
2022-10-14T06:27:00.230Z,17.77
2022-10-14T06:32:01.595Z,17.40
2022-10-14T06:37:02.964Z,16.75
2022-10-14T06:42:04.420Z,18.58
2022-10-14T06:47:07.169Z,16.83
2022-10-14T06:52:08.533Z,16.73
2022-10-14T06:57:09.930Z,18.48
2022-10-14T07:02:11.697Z,18.23
2022-10-14T07:07:13.046Z,17.10
2022-10-14T07:12:14.464Z,17.88
2022-10-14T07:17:15.835Z,16.83
2022-10-14T07:22:17.576Z,17.40
2022-10-14T07:27:20.699Z,16.48
2022-10-14T07:32:22.444Z,15.82
2022-10-14T07:37:24.251Z,17.05
2022-10-14T07:42:25.915Z,20.08
2022-10-14T07:47:27.667Z,18.20
2022-10-14T07:52:29.180Z,21.55
2022-10-14T07:57:30.711Z,18.05
2022-10-14T08:02:32.178Z,16.42
2022-10-14T08:07:33.571Z,17.35
2022-10-14T08:12:34.944Z,18.17
2022-10-14T08:17:36.340Z,18.02
2022-10-14T08:22:37.756Z,18.27
2022-10-14T08:27:39.089Z,17.55
2022-10-14T08:32:40.452Z,19.02
2022-10-14T08:37:42.378Z,19.70
2022-10-14T08:42:55.515Z,19.98
2022-10-14T08:48:00.457Z,18.73
2022-10-14T08:53:19.402Z,17.70
2022-10-14T08:58:28.651Z,19.92
2022-10-14T09:03:34.678Z,19.80
2022-10-14T09:08:42.195Z,20.88
2022-10-14T09:13:46.922Z,20.52
2022-10-14T09:18:58.061Z,18.77
2022-10-14T09:24:18.062Z,18.30
2022-10-14T09:29:25.878Z,19.13
2022-10-14T09:34:35.911Z,17.48
2022-10-14T09:39:40.287Z,18.92
2022-10-14T09:44:41.895Z,17.02
2022-10-14T09:49:46.946Z,15.15
2022-10-14T09:54:58.630Z,15.50
2022-10-14T10:00:03.931Z,15.45
2022-10-14T10:05:14.147Z,16.02
2022-10-14T10:10:22.638Z,14.77
2022-10-14T10:15:24.440Z,13.10
2022-10-14T10:20:34.128Z,14.75
2022-10-14T10:25:35.494Z,13.90
2022-10-14T10:30:48.434Z,12.20
2022-10-14T10:35:52.539Z,12.82
2022-10-14T10:41:21.779Z,11.63
2022-10-14T10:46:32.248Z,10.30
2022-10-14T10:52:04.198Z,10.48
2022-10-14T10:57:18.523Z,11.45
2022-10-14T11:02:38.770Z,12.55
2022-10-14T11:08:12.619Z,12.25
2022-10-14T11:13:29.488Z,11.50
2022-10-14T11:19:10.890Z,11.77
2022-10-14T11:24:33.774Z,10.27
2022-10-14T11:29:54.234Z,12.32
2022-10-14T11:35:17.065Z,9.90
2022-10-14T11:40:39.604Z,8.10
2022-10-14T11:45:51.212Z,7.93
2022-10-14T11:51:05.142Z,8.38
2022-10-14T11:56:30.963Z,8.50
2022-10-14T12:01:38.643Z,8.00
2022-10-14T12:06:57.195Z,7.28
2022-10-14T12:12:11.814Z,6.47
2022-10-14T12:17:23.523Z,6.63
2022-10-14T12:22:29.149Z,6.05
2022-10-14T12:27:31.297Z,5.82
2022-10-14T12:32:32.947Z,6.68
2022-10-14T12:37:38.027Z,6.43
2022-10-14T12:42:42.169Z,6.68
2022-10-14T12:47:43.991Z,6.47
2022-10-14T12:52:55.660Z,7.10
2022-10-14T12:58:06.165Z,6.25
2022-10-14T13:03:20.479Z,5.72
2022-10-14T13:08:25.573Z,5.95
2022-10-14T13:13:40.040Z,6.00
2022-10-14T13:18:44.209Z,7.05
2022-10-14T13:23:50.732Z,7.45
2022-10-14T13:29:04.479Z,6.65
2022-10-14T13:34:27.653Z,6.95
2022-10-14T13:39:32.855Z,6.57
2022-10-14T13:44:35.606Z,7.43
2022-10-14T13:49:40.374Z,7.53
2022-10-14T13:54:41.859Z,7.28
2022-10-14T14:00:09.061Z,6.90
2022-10-14T14:05:16.190Z,6.68
2022-10-14T14:10:20.723Z,7.68
2022-10-14T14:15:27.393Z,7.97
2022-10-14T14:20:29.608Z,7.18
2022-10-14T14:25:36.707Z,8.40
2022-10-14T14:30:39.171Z,7.60
2022-10-14T14:35:51.933Z,7.97
2022-10-14T14:41:06.842Z,6.70
2022-10-14T14:46:17.273Z,7.78
2022-10-14T14:51:19.152Z,7.82
2022-10-14T14:56:31.552Z,6.47
2022-10-14T15:01:33.197Z,7.40
2022-10-14T15:06:34.665Z,6.97
2022-10-14T15:11:49.362Z,7.72
2022-10-14T15:16:54.178Z,8.00
2022-10-14T15:22:22.860Z,9.45
2022-10-14T15:27:35.638Z,11.45
2022-10-14T15:32:37.167Z,9.43
2022-10-14T15:37:38.622Z,9.95
2022-10-14T15:42:40.270Z,10.32
2022-10-14T15:47:42.640Z,11.63
2022-10-14T15:52:45.341Z,11.27
2022-10-14T15:57:49.743Z,11.98
2022-10-14T16:02:58.397Z,11.30
2022-10-14T16:08:01.698Z,11.80
2022-10-14T16:13:03.110Z,12.18
2022-10-14T16:18:04.687Z,10.25
2022-10-14T16:23:06.792Z,10.48
2022-10-14T16:28:12.735Z,11.75
2022-10-14T16:33:19.236Z,12.25
2022-10-14T16:38:21.294Z,13.13
2022-10-14T16:43:22.731Z,12.90
2022-10-14T16:48:24.075Z,15.45
2022-10-14T16:53:41.062Z,15.88
2022-10-14T16:58:42.439Z,16.25
2022-10-14T17:03:44.663Z,14.75
2022-10-14T17:08:45.987Z,15.68
2022-10-14T17:13:51.586Z,16.55
2022-10-14T17:18:52.979Z,15.48
2022-10-14T17:23:54.294Z,15.60
2022-10-14T17:28:57.080Z,15.10
2022-10-14T17:33:59.204Z,13.88
2022-10-14T17:39:00.640Z,15.15
2022-10-14T17:44:02.705Z,12.65
2022-10-14T17:49:06.358Z,12.52
2022-10-14T17:54:10.935Z,13.65
2022-10-14T17:59:14.029Z,14.73
2022-10-14T18:04:15.690Z,12.85
2022-10-14T18:09:17.107Z,14.75
2022-10-14T18:14:18.505Z,15.15
2022-10-14T18:19:19.904Z,13.77
2022-10-14T18:24:21.369Z,13.75
2022-10-14T18:29:23.814Z,13.73
2022-10-14T18:34:27.184Z,13.00
2022-10-14T18:39:28.603Z,12.38
2022-10-14T18:44:29.966Z,12.85
2022-10-14T18:49:33.642Z,14.13
2022-10-14T18:54:38.105Z,13.15
2022-10-14T18:59:39.535Z,13.10
2022-10-14T19:04:40.868Z,13.45
2022-10-14T19:09:42.286Z,15.38
2022-10-14T19:14:44.344Z,12.45
2022-10-14T19:19:45.710Z,13.55
2022-10-14T19:24:47.053Z,12.48
2022-10-14T19:29:48.400Z,13.13
2022-10-14T19:34:49.714Z,12.55
2022-10-14T19:39:51.055Z,11.88
2022-10-14T19:44:52.959Z,11.07
2022-10-14T19:49:54.315Z,10.13
2022-10-14T19:54:55.692Z,10.40
2022-10-14T19:59:57.064Z,8.55
2022-10-14T20:04:58.398Z,8.05
2022-10-14T20:10:02.013Z,7.43
2022-10-14T20:15:06.700Z,7.68
2022-10-14T20:20:08.711Z,7.45
2022-10-14T20:25:10.255Z,6.05
2022-10-14T20:30:12.137Z,6.95
2022-10-14T20:35:15.151Z,6.50
2022-10-14T20:40:16.850Z,7.03
2022-10-14T20:45:18.575Z,7.07
2022-10-14T20:50:20.449Z,7.45
2022-10-14T20:55:21.813Z,7.75
2022-10-14T21:00:23.183Z,6.55
2022-10-14T21:05:25.192Z,5.00
2022-10-14T21:10:27.345Z,4.22
2022-10-14T21:15:28.717Z,4.28
2022-10-14T21:20:30.060Z,3.92
2022-10-14T21:25:31.454Z,4.22
2022-10-14T21:30:32.824Z,3.17
2022-10-14T21:35:34.169Z,2.63
2022-10-14T21:40:35.537Z,2.22
2022-10-14T21:45:36.866Z,2.97
2022-10-14T21:50:38.182Z,2.78
2022-10-14T21:55:39.645Z,3.47
2022-10-14T22:00:40.972Z,3.95
2022-10-14T22:05:42.327Z,4.10
2022-10-14T22:10:44.906Z,4.32
2022-10-14T22:15:46.265Z,4.97
2022-10-14T22:20:48.991Z,5.72
2022-10-14T22:25:50.347Z,6.38
2022-10-14T22:30:51.678Z,7.70
2022-10-14T22:35:53.043Z,8.43
2022-10-14T22:40:54.362Z,8.85
2022-10-14T22:46:03.300Z,9.38
2022-10-14T22:51:13.314Z,10.40
2022-10-14T22:56:17.273Z,10.80
2022-10-14T23:01:18.709Z,12.07
2022-10-14T23:06:20.488Z,11.05
2022-10-14T23:11:24.015Z,12.15
2022-10-14T23:16:27.447Z,11.55
2022-10-14T23:21:34.235Z,11.93
2022-10-14T23:26:36.093Z,12.73
2022-10-14T23:31:39.298Z,12.68
2022-10-14T23:36:41.395Z,12.60
2022-10-14T23:41:43.259Z,10.18
2022-10-14T23:46:44.686Z,10.07
2022-10-14T23:51:46.020Z,6.32
2022-10-14T23:56:47.396Z,5.57
